Weather observations for the past three days for
Scottsdale Airport
Metric (Imperial)
Date Time (mst) Wind (kph) Vis. (km) Weather Sky Cond. Temperature (ºC) Relative Humidity Wind Chill (°C) Heat Index (°C) Pressure Precipitation (cm)
Air Dwpt 6 hour altimeter (cm) sea level (mb) 1 hr 3 hr 6 hr
Max. Min.
06 03:53 Calm 16.09 Fair CLR 28.3 15 44% 28 75.87 1008.5
06 02:53 Calm 16.09 Fair CLR 29.4 15 42% 29 75.87 1008.3
06 01:53 Calm 16.09 Fair CLR 30 13.9 37% 29 75.87 1008.3
06 00:53 NW 6 16.09 Fair CLR 31.1 13.9 35% 30 75.9 1008.8
05 23:53 Calm 16.09 Fair CLR 31.7 13.3 33% 31 75.92 1009.1
05 22:53 Calm 16.09 Fair CLR 32.2 13.3 37.2 32.2 32% 31 75.92 1009.1
05 21:53 Calm 16.09 Fair CLR 32.8 12.8 30% 32 75.92 1009.3
05 20:53 NW 7 16.09 Fair CLR 33.3 12.8 29% 32 75.92 1009.2
05 19:53 NW 6 16.09 Fair CLR 33.9 12.2 27% 33 75.9 1008.8
05 18:53 NW 17 16.09 Fair CLR 35 12.2 25% 34 75.87 1008.5
05 17:53 NW 11 G 28 16.09 Fair CLR 36.1 12.2 24% 35 75.87 1008.7
05 16:53 W 13 16.09 Fair CLR 37.2 12.2 37.8 33.3 22% 36 75.87 1008.4
05 15:53 W 13 G 26 16.09 Fair CLR 36.7 12.8 24% 36 75.87 1008.6
05 14:53 W 15 16.09 Fair CLR 37.2 13.9 25% 37 75.92 1009.1
05 13:53 SW 11 16.09 Fair CLR 37.2 13.9 25% 37 75.97 1009.7
05 10:53 Vrbl 9 16.09 Fair CLR 33.9 13.3 33.9 28.3 29% 33 76.12 1011.9
05 09:53 SW 6 16.09 Fair CLR 32.8 12.8 30% 32 76.12 1011.9
05 08:53 NW 6 16.09 Fair CLR 32.2 12.8 31% 31 76.1 1011.7
05 07:53 Calm 16.09 Fair CLR 31.7 13.3 33% 31 76.1 1011.4
05 06:53 Calm 16.09 Fair CLR 29.4 14.4 40% 29 76.05 1011.0
05 05:53 NE 6 16.09 Fair CLR 28.9 13.9 40% 28 76 1010.2
05 04:53 Calm 16.09 Fair CLR 28.9 14.4 33.9 28.9 41% 29 75.97 1010.0
05 03:53 Calm 16.09 Fair CLR 30 13.9 37% 29 75.97 1009.7
05 02:53 Calm 16.09 A Few Clouds FEW100 30.6 13.3 35% 30 75.95 1009.5
05 01:53 Calm 16.09 Fair CLR 31.1 12.8 33% 30 75.95 1009.6
05 00:53 Calm 16.09 Fair CLR 32.2 12.8 31% 31 75.97 1009.7
04 23:53 Calm 16.09 A Few Clouds FEW110 32.8 12.2 28% 32 75.95 1009.5
04 22:53 W 6 16.09 Mostly Cloudy BKN110 33.9 11.7 37.8 33.9 26% 33 75.92 1009.2
04 21:53 W 7 16.09 Fair CLR 34.4 12.2 26% 33 75.9 1008.9
04 20:53 W 11 16.09 A Few Clouds FEW110 35.6 12.8 25% 35 75.87 1008.4
04 19:53 SW 9 16.09 Mostly Cloudy BKN100 36.1 11.7 23% 35 75.82 1007.7
04 18:53 SE 6 16.09 Mostly Cloudy BKN100 36.1 14.4 27% 36 75.77 1007.2
04 17:53 S 9 16.09 Partly Cloudy SCT100 36.7 13.9 25% 36 75.74 1007.0
04 16:53 E 6 16.09 A Few Clouds FEW090 36.7 15 37.8 33.9 27% 37 75.77 1007.3
04 15:53 W 7 16.09 Partly Cloudy SCT095 36.1 15 28% 36 75.79 1007.7
04 14:53 Calm 16.09 A Few Clouds FEW095 37.2 15 27% 37 75.84 1008.3
04 13:53 SW 19 G 26 16.09 Fair CLR 36.7 15.6 28% 37 75.9 1008.9
04 12:53 SE 13 16.09 Fair CLR 35.6 16.7 32% 36 75.97 1009.8
04 11:53 SE 9 16.09 Fair CLR 34.4 17.2 36% 35 76.02 1010.6
04 10:53 SE 13 16.09 Fair CLR 33.9 18.9 33.9 28.3 41% 36 76.07 1011.3
04 09:53 S 15 16.09 Fair CLR 32.8 19.4 45% 35 76.07 1011.1
04 08:53 S 19 16.09 Fair CLR 31.1 20.6 54% 34 76.05 1011.0
04 07:53 SE 13 16.09 Fair CLR 30 20.6 57% 32 76.05 1010.8
04 06:53 Vrbl 6 16.09 Fair CLR 28.9 20 59% 31 76 1010.4
04 05:53 E 7 16.09 Fair CLR 28.3 20 61% 30 75.92 1009.3
04 04:53 E 6 16.09 Fair CLR 28.3 19.4 31.7 28.3 59% 30 75.9 1008.9
04 03:53 E 6 16.09 A Few Clouds FEW110 28.9 19.4 57% 30 75.9 1008.7
04 02:53 SE 9 16.09 Fair CLR 29.4 19.4 55% 31 75.87 1008.3
04 01:53 SE 6 16.09 Fair CLR 30 18.9 51% 31 75.84 1008.2
04 00:53 SE 6 16.09 A Few Clouds FEW110 30.6 19.4 51% 32 75.87 1008.4
03 23:53 SE 6 16.09 Mostly Cloudy BKN100 31.1 18.3 46% 32 75.84 1008.3
03 22:53 SE 6 16.09 Mostly Cloudy BKN090 31.7 17.8 36.7 31.7 43% 32 75.82 1007.9
03 21:53 E 6 16.09 Partly Cloudy SCT090 32.2 17.2 41% 33 75.79 1007.6
03 20:53 Calm 16.09 Mostly Cloudy BKN100 32.8 17.2 39% 33 75.77 1007.3
03 19:53 SE 11 16.09 Fair CLR 32.8 17.8 41% 34 75.72 1006.6
03 18:53 SE 6 16.09 Mostly Cloudy BKN090 36.1 15 28% 36 75.67 1005.9
03 17:53 SE 7 16.09 Fair CLR 36.7 14.4 26% 36 75.67 1006.0
03 16:53 SE 11 16.09 A Few Clouds FEW110 36.7 14.4 37.8 33.3 26% 36 75.69 1006.1
03 15:53 Vrbl 6 16.09 A Few Clouds FEW085 37.2 14.4 26% 37 75.74 1006.6
03 14:53 SW 15 16.09 Fair CLR 36.7 15 27% 37 75.79 1007.3
03 13:53 Vrbl 7 G 30 16.09 Fair CLR 36.1 14.4 27% 36 75.87 1008.4
03 12:53 Vrbl 9 16.09 Fair CLR 35.6 14.4 28% 35 75.92 1009.1
03 11:53 S 13 16.09 Fair CLR 34.4 16.1 33% 35 76 1010.0
03 10:53 E 11 16.09 Fair CLR 33.3 18.3 33.3 28.3 41% 34 76.05 1010.9
03 09:53 NE 9 16.09 Fair CLR 32.2 18.3 44% 33 76.07 1011.2
03 08:53 Vrbl 6 16.09 A Few Clouds FEW065 31.1 18.9 48% 32 76.07 1011.4
03 07:53 Vrbl 7 16.09 Fair CLR 30 18.9 51% 31 76.1 1011.6
03 06:53 Calm 16.09 Fair CLR 28.9 18.3 53% 30 76.05 1011.0
03 05:53 SW 6 16.09 A Few Clouds FEW110 28.9 18.9 55% 30 76.02 1010.4
03 04:53 Calm 16.09 Fair CLR 29.4 17.8 33.3 28.9 50% 30 75.97 1009.8
Date Time (mst) Wind (kph) Vis. (km) Weather Sky Cond. Air Dwpt Max. Min. Relative Humidity Wind Chill (°C) Heat Index (°C) altimeter (cm) sea level (mb) 1 hr 3 hr 6 hr
6 hour
Temperature (ºC) Pressure Precipitation (cm)